createdAt,value
2023-03-25T00:00:18.380Z,10.27
2023-03-25T00:02:47.919Z,9.70
2023-03-25T00:05:16.043Z,11.57
2023-03-25T00:07:44.426Z,13.80
2023-03-25T00:10:13.335Z,12.83
2023-03-25T00:12:41.217Z,10.33
2023-03-25T00:15:11.185Z,10.67
2023-03-25T00:17:38.886Z,9.97
2023-03-25T00:20:11.540Z,11.17
2023-03-25T00:22:41.743Z,9.03
2023-03-25T00:25:17.841Z,10.90
2023-03-25T00:27:47.036Z,12.03
2023-03-25T00:30:18.917Z,10.80
2023-03-25T00:32:50.365Z,8.87
2023-03-25T00:35:19.991Z,9.83
2023-03-25T00:37:57.810Z,10.30
2023-03-25T00:40:25.199Z,10.50
2023-03-25T00:42:52.201Z,10.00
2023-03-25T00:45:19.877Z,9.33
2023-03-25T00:47:47.078Z,8.93
2023-03-25T00:50:14.701Z,13.47
2023-03-25T00:52:41.758Z,9.47
2023-03-25T00:55:08.934Z,11.80
2023-03-25T00:57:36.406Z,12.53
2023-03-25T01:00:08.475Z,9.47
2023-03-25T01:02:36.125Z,12.73
2023-03-25T01:05:04.367Z,13.43
2023-03-25T01:07:32.373Z,10.87
2023-03-25T01:10:00.078Z,9.23
2023-03-25T01:12:27.628Z,11.43
2023-03-25T01:14:56.193Z,12.63
2023-03-25T01:17:23.424Z,10.50
2023-03-25T01:19:51.098Z,10.90
2023-03-25T01:22:18.351Z,10.50
2023-03-25T01:24:45.685Z,8.90
2023-03-25T01:27:12.481Z,10.33
2023-03-25T01:29:39.447Z,11.53
2023-03-25T01:32:06.778Z,12.73
2023-03-25T01:34:34.070Z,10.70
2023-03-25T01:37:01.280Z,9.50
2023-03-25T01:39:28.437Z,12.77
2023-03-25T01:41:55.566Z,9.63
2023-03-25T01:44:22.458Z,10.23
2023-03-25T01:46:54.184Z,11.23
2023-03-25T01:49:54.483Z,7.53
2023-03-25T01:52:27.089Z,9.47
2023-03-25T01:54:56.062Z,9.20
2023-03-25T01:57:24.959Z,9.70
2023-03-25T01:59:55.232Z,6.90
2023-03-25T02:02:25.690Z,11.17
2023-03-25T02:05:02.287Z,9.33
2023-03-25T02:07:32.873Z,9.13
2023-03-25T02:10:02.734Z,8.53
2023-03-25T02:12:29.674Z,8.87
2023-03-25T02:15:01.002Z,9.73
2023-03-25T02:18:29.381Z,10.43
2023-03-25T02:21:27.307Z,8.93
2023-03-25T02:24:14.271Z,10.00
2023-03-25T02:27:01.260Z,10.03
2023-03-25T02:29:59.892Z,13.63
2023-03-25T02:32:38.339Z,6.90
2023-03-25T02:35:42.370Z,8.43
2023-03-25T02:38:28.299Z,11.63
2023-03-25T02:41:05.401Z,6.63
2023-03-25T02:43:38.528Z,6.93
2023-03-25T02:46:09.977Z,8.60
2023-03-25T02:49:10.102Z,7.67
2023-03-25T02:51:49.411Z,9.40
2023-03-25T02:54:17.323Z,6.10
2023-03-25T02:56:47.582Z,9.77
2023-03-25T02:59:15.844Z,8.17
2023-03-25T03:01:43.211Z,8.30
2023-03-25T03:04:12.892Z,8.90
2023-03-25T03:06:42.818Z,10.90
2023-03-25T03:09:19.231Z,7.67
2023-03-25T03:12:09.798Z,8.50
2023-03-25T03:15:11.549Z,6.83
2023-03-25T03:18:02.830Z,12.37
2023-03-25T03:20:32.849Z,5.20
2023-03-25T03:23:28.889Z,6.73
2023-03-25T03:26:09.603Z,10.03
2023-03-25T03:28:47.222Z,6.90
2023-03-25T03:32:06.608Z,7.53
2023-03-25T03:35:12.218Z,11.63
2023-03-25T03:37:46.310Z,9.00
2023-03-25T03:40:20.778Z,8.50
2023-03-25T03:43:04.862Z,11.83
2023-03-25T03:45:38.260Z,9.37
2023-03-25T03:48:14.149Z,10.33
2023-03-25T03:50:48.936Z,7.73
2023-03-25T03:53:22.655Z,7.37
2023-03-25T03:56:10.445Z,7.73
2023-03-25T03:58:43.178Z,5.13
2023-03-25T04:01:30.731Z,6.70
2023-03-25T04:04:01.340Z,6.90
2023-03-25T04:06:31.151Z,7.50
2023-03-25T04:09:27.320Z,6.53
2023-03-25T04:12:03.334Z,6.17
2023-03-25T04:14:31.982Z,8.53
2023-03-25T04:16:59.927Z,8.30
2023-03-25T04:19:27.312Z,7.23
2023-03-25T04:21:54.255Z,6.87
2023-03-25T04:24:21.081Z,9.47
2023-03-25T04:26:47.989Z,9.80
2023-03-25T04:29:15.081Z,7.87
2023-03-25T04:31:50.650Z,6.63
2023-03-25T04:34:17.856Z,8.60
2023-03-25T04:36:44.749Z,11.20
2023-03-25T04:39:13.918Z,7.63
2023-03-25T04:41:40.748Z,5.27
2023-03-25T04:44:10.407Z,8.63
2023-03-25T04:46:38.455Z,9.20
2023-03-25T04:49:14.458Z,4.13
2023-03-25T04:51:50.824Z,5.50
2023-03-25T04:54:19.004Z,6.27
2023-03-25T04:56:48.094Z,7.47
2023-03-25T04:59:16.095Z,6.90
2023-03-25T05:01:46.182Z,6.90
2023-03-25T05:04:17.846Z,11.00
2023-03-25T05:06:48.635Z,12.27
2023-03-25T05:09:19.402Z,10.23
2023-03-25T05:11:47.046Z,11.37
2023-03-25T05:14:16.873Z,8.87
2023-03-25T05:16:45.036Z,12.63
2023-03-25T05:19:12.852Z,8.93
2023-03-25T05:21:41.396Z,9.90
2023-03-25T05:24:11.018Z,12.23
2023-03-25T05:26:39.973Z,13.47
2023-03-25T05:29:09.974Z,11.60
2023-03-25T05:31:37.072Z,10.37
2023-03-25T05:34:06.859Z,10.13
2023-03-25T05:36:33.853Z,10.43
2023-03-25T05:39:00.950Z,13.17
2023-03-25T05:41:39.298Z,12.17
2023-03-25T05:44:08.212Z,10.33
2023-03-25T05:46:35.141Z,11.00
2023-03-25T05:49:02.202Z,7.87
2023-03-25T05:51:37.905Z,8.50
2023-03-25T05:54:11.539Z,11.60
2023-03-25T05:56:39.825Z,9.67
2023-03-25T05:59:06.856Z,7.77
2023-03-25T06:01:34.404Z,6.70
2023-03-25T06:04:03.160Z,5.63
2023-03-25T06:06:32.434Z,7.03
2023-03-25T06:08:59.740Z,9.77
2023-03-25T06:11:26.749Z,6.87
2023-03-25T06:13:53.761Z,8.13
2023-03-25T06:16:23.338Z,10.80
2023-03-25T06:18:56.462Z,8.90
2023-03-25T06:21:24.116Z,8.17
2023-03-25T06:23:51.136Z,16.40
2023-03-25T06:26:19.747Z,10.80
2023-03-25T06:28:47.193Z,14.00
2023-03-25T06:31:20.787Z,10.43
2023-03-25T06:33:49.277Z,13.43
2023-03-25T06:36:19.031Z,8.30
2023-03-25T06:38:50.603Z,11.13
2023-03-25T06:41:20.698Z,7.00
2023-03-25T06:43:48.791Z,9.73
2023-03-25T06:46:17.044Z,8.80
2023-03-25T06:48:44.376Z,7.20
2023-03-25T06:51:11.376Z,10.80
2023-03-25T06:53:38.534Z,8.50
2023-03-25T06:56:05.852Z,9.63
2023-03-25T06:58:35.456Z,8.93
2023-03-25T07:01:07.761Z,7.43
2023-03-25T07:03:36.844Z,9.60
2023-03-25T07:06:05.649Z,7.63
2023-03-25T07:08:33.204Z,8.00
2023-03-25T07:11:07.757Z,10.97
2023-03-25T07:13:35.513Z,9.67
2023-03-25T07:16:03.261Z,6.13
2023-03-25T07:18:30.887Z,11.70
2023-03-25T07:20:57.964Z,12.37
2023-03-25T07:23:24.947Z,8.43
2023-03-25T07:25:52.531Z,6.43
2023-03-25T07:28:20.550Z,10.67
2023-03-25T07:30:47.704Z,6.93
2023-03-25T07:33:14.865Z,9.27
2023-03-25T07:35:41.953Z,9.13
2023-03-25T07:38:11.253Z,12.40
2023-03-25T07:40:38.430Z,10.07
2023-03-25T07:43:05.478Z,9.43
2023-03-25T07:45:55.903Z,11.60
2023-03-25T07:48:19.139Z,11.70
2023-03-25T07:50:46.222Z,10.07
2023-03-25T07:53:13.090Z,6.73
2023-03-25T07:55:39.972Z,9.10
2023-03-25T07:58:06.950Z,10.53
2023-03-25T08:00:34.039Z,7.97
2023-03-25T08:03:00.964Z,7.80
2023-03-25T08:05:28.185Z,8.57
2023-03-25T08:07:55.720Z,7.93
2023-03-25T08:10:22.515Z,10.57
2023-03-25T08:12:53.729Z,9.17
2023-03-25T08:15:24.651Z,8.53
2023-03-25T08:17:54.968Z,8.87
2023-03-25T08:20:21.941Z,9.63
2023-03-25T08:22:48.927Z,8.17
2023-03-25T08:25:16.100Z,8.03
2023-03-25T08:27:43.506Z,11.30
2023-03-25T08:30:10.990Z,11.67
2023-03-25T08:32:38.872Z,9.60
2023-03-25T08:35:06.853Z,12.10
2023-03-25T08:37:37.986Z,8.53
2023-03-25T08:40:09.735Z,9.63
2023-03-25T08:42:37.852Z,8.93
2023-03-25T08:45:06.584Z,7.53
2023-03-25T08:47:33.589Z,8.03
2023-03-25T08:50:00.967Z,9.93
2023-03-25T08:52:28.215Z,8.03
2023-03-25T08:54:55.097Z,8.87
2023-03-25T08:57:22.041Z,4.83
2023-03-25T08:59:51.304Z,4.90
2023-03-25T09:02:18.244Z,5.97
2023-03-25T09:04:45.169Z,6.33
2023-03-25T09:07:12.872Z,4.50
2023-03-25T09:09:41.337Z,4.33
2023-03-25T09:12:09.359Z,5.87
2023-03-25T09:14:37.318Z,3.90
2023-03-25T09:17:06.145Z,6.20
2023-03-25T09:19:35.115Z,4.83
2023-03-25T09:22:01.990Z,5.33
2023-03-25T09:24:28.908Z,3.87
2023-03-25T09:26:55.836Z,5.40
2023-03-25T09:29:22.758Z,4.37
2023-03-25T09:31:49.614Z,3.40
2023-03-25T09:34:16.512Z,5.50
2023-03-25T09:36:43.457Z,3.80
2023-03-25T09:39:10.474Z,5.83
2023-03-25T09:42:04.492Z,4.43
2023-03-25T09:44:39.377Z,6.40
2023-03-25T09:47:15.569Z,7.70
2023-03-25T09:49:45.845Z,5.20
2023-03-25T09:52:18.844Z,5.87
2023-03-25T09:54:59.971Z,5.73
2023-03-25T09:57:30.907Z,3.10
2023-03-25T10:00:01.596Z,4.80
2023-03-25T10:02:43.731Z,3.63
2023-03-25T10:05:34.218Z,4.77
2023-03-25T10:08:20.022Z,4.63
2023-03-25T10:11:03.200Z,3.43
2023-03-25T10:13:41.776Z,6.47
2023-03-25T10:16:42.773Z,4.90
2023-03-25T10:19:17.506Z,4.00
2023-03-25T10:22:02.303Z,6.67
2023-03-25T10:24:39.469Z,7.80
2023-03-25T10:27:12.217Z,6.40
2023-03-25T10:29:44.266Z,4.63
2023-03-25T10:32:18.727Z,7.23
2023-03-25T10:34:50.903Z,6.57
2023-03-25T10:37:29.327Z,5.87
2023-03-25T10:40:08.625Z,5.43
2023-03-25T10:42:48.957Z,7.43
2023-03-25T10:45:18.512Z,7.23
2023-03-25T10:47:48.478Z,7.93
2023-03-25T10:50:17.813Z,8.63
2023-03-25T10:52:46.450Z,10.10
2023-03-25T10:55:28.963Z,6.60
2023-03-25T10:57:56.755Z,4.23
2023-03-25T11:00:26.627Z,7.77
2023-03-25T11:02:56.260Z,5.53
2023-03-25T11:05:28.494Z,3.57
2023-03-25T11:08:08.822Z,7.63
2023-03-25T11:10:49.274Z,2.63
2023-03-25T11:13:22.171Z,2.77
2023-03-25T11:15:50.133Z,5.33
2023-03-25T11:18:40.282Z,3.90
2023-03-25T11:21:13.889Z,1.87
2023-03-25T11:23:49.280Z,2.13
2023-03-25T11:26:22.010Z,2.97
2023-03-25T11:28:55.193Z,2.03
2023-03-25T11:31:27.696Z,2.13
2023-03-25T11:34:12.906Z,4.43
2023-03-25T11:36:43.495Z,3.30
2023-03-25T11:39:27.471Z,1.73
2023-03-25T11:41:55.548Z,3.73
2023-03-25T11:44:25.643Z,3.93
2023-03-25T11:46:57.216Z,4.17
2023-03-25T11:49:30.225Z,3.97
2023-03-25T11:52:03.494Z,2.73
2023-03-25T11:54:31.288Z,3.10
2023-03-25T11:56:58.093Z,3.40
2023-03-25T11:59:46.750Z,3.37
2023-03-25T12:02:19.430Z,3.70
2023-03-25T12:05:03.244Z,4.70
2023-03-25T12:07:41.435Z,4.83
2023-03-25T12:10:15.884Z,4.47
2023-03-25T12:12:47.777Z,5.73
2023-03-25T12:15:33.569Z,5.80
2023-03-25T12:18:32.896Z,4.63
2023-03-25T12:21:28.982Z,4.37
2023-03-25T12:24:07.805Z,4.73
2023-03-25T12:26:49.826Z,3.73
2023-03-25T12:29:25.897Z,14.20
2023-03-25T12:32:04.688Z,6.33
2023-03-25T12:34:34.789Z,6.90
2023-03-25T12:37:39.659Z,5.97
2023-03-25T12:40:28.644Z,6.67
2023-03-25T12:43:05.901Z,6.87
2023-03-25T12:46:11.171Z,9.90
2023-03-25T12:48:45.374Z,6.17
2023-03-25T12:51:21.542Z,2.60
2023-03-25T12:53:48.338Z,3.57
2023-03-25T12:56:29.674Z,1.70
2023-03-25T12:59:29.344Z,3.87
2023-03-25T13:02:12.009Z,6.33
2023-03-25T13:05:18.914Z,4.17
2023-03-25T13:08:11.862Z,3.63
2023-03-25T13:10:42.116Z,4.00
2023-03-25T13:13:17.922Z,4.83
2023-03-25T13:15:49.817Z,15.23
2023-03-25T13:18:25.731Z,34.17
2023-03-25T13:21:15.956Z,11.13
2023-03-25T13:23:47.080Z,8.67
2023-03-25T13:26:19.821Z,7.13
2023-03-25T13:29:09.730Z,6.67
2023-03-25T13:31:42.722Z,3.30
2023-03-25T13:34:19.607Z,5.50
2023-03-25T13:37:10.714Z,6.60
2023-03-25T13:40:15.034Z,2.63
2023-03-25T13:42:56.255Z,2.37
2023-03-25T13:45:25.061Z,2.77
2023-03-25T13:48:07.626Z,2.60
2023-03-25T13:50:37.027Z,2.57
2023-03-25T14:04:07.004Z,3.27
2023-03-25T14:06:55.313Z,4.07
2023-03-25T14:09:37.490Z,5.67
2023-03-25T14:12:08.593Z,7.03
2023-03-25T14:14:42.191Z,4.20
2023-03-25T14:17:10.683Z,4.53
2023-03-25T14:19:41.335Z,5.60
2023-03-25T14:22:21.134Z,3.53
2023-03-25T14:24:50.410Z,4.47
2023-03-25T14:27:29.977Z,4.97
2023-03-25T14:30:01.035Z,5.63
2023-03-25T14:32:38.445Z,4.37
2023-03-25T14:35:31.800Z,6.90
2023-03-25T14:38:08.023Z,5.13
2023-03-25T14:43:40.498Z,4.03
2023-03-25T14:46:13.509Z,3.73
2023-03-25T14:48:47.167Z,3.53
2023-03-25T14:51:25.931Z,4.30
2023-03-25T14:54:02.648Z,4.77
2023-03-25T14:56:37.024Z,3.93
2023-03-25T14:59:17.094Z,4.17
2023-03-25T15:01:45.364Z,6.47
2023-03-25T15:04:13.184Z,4.60
2023-03-25T15:06:41.560Z,2.47
2023-03-25T15:09:13.186Z,4.93
2023-03-25T15:11:44.127Z,5.03
2023-03-25T15:14:20.001Z,4.37
2023-03-25T15:16:50.092Z,3.47
2023-03-25T15:19:20.686Z,4.10
2023-03-25T15:22:03.666Z,5.70
2023-03-25T15:24:35.679Z,3.63
2023-03-25T15:27:14.715Z,5.20
2023-03-25T15:29:44.266Z,5.57
2023-03-25T15:32:17.084Z,4.80
2023-03-25T15:35:04.095Z,5.83
2023-03-25T15:37:56.031Z,6.97
2023-03-25T15:40:48.102Z,7.57
2023-03-25T15:44:00.641Z,5.33
2023-03-25T15:46:50.298Z,8.83
2023-03-25T15:49:42.076Z,6.23
2023-03-25T15:52:24.576Z,7.30
2023-03-25T15:55:02.509Z,7.80
2023-03-25T15:57:38.451Z,12.73
2023-03-25T16:00:16.005Z,5.17
2023-03-25T16:02:48.768Z,6.70
2023-03-25T16:05:17.812Z,6.10
2023-03-25T16:07:46.662Z,5.03
2023-03-25T16:10:20.986Z,4.47
2023-03-25T16:12:50.232Z,2.47
2023-03-25T16:15:24.812Z,2.27
2023-03-25T16:17:52.360Z,2.10
2023-03-25T16:20:23.696Z,3.80
2023-03-25T16:22:54.275Z,2.83
2023-03-25T16:25:27.259Z,4.23
2023-03-25T16:27:58.298Z,5.47
2023-03-25T16:30:48.550Z,3.93
2023-03-25T16:33:18.684Z,5.50
2023-03-25T16:35:57.505Z,3.53
2023-03-25T16:38:29.202Z,3.43
2023-03-25T16:41:14.041Z,4.43
2023-03-25T16:43:41.841Z,3.23
2023-03-25T16:46:11.329Z,2.13
2023-03-25T16:48:41.458Z,2.90
2023-03-25T16:51:30.208Z,2.57
2023-03-25T16:54:00.925Z,2.87
2023-03-25T16:56:33.230Z,3.53
2023-03-25T16:59:06.425Z,2.23
2023-03-25T17:01:38.836Z,5.50
2023-03-25T17:04:27.212Z,4.57
2023-03-25T17:07:01.721Z,6.23
2023-03-25T17:09:34.604Z,5.20
2023-03-25T17:12:06.993Z,3.70
2023-03-25T17:14:41.204Z,4.97
2023-03-25T17:17:12.616Z,3.97
2023-03-25T17:19:49.541Z,5.97
2023-03-25T17:22:25.623Z,4.43
2023-03-25T17:24:58.465Z,5.27
2023-03-25T17:27:27.605Z,6.07
2023-03-25T17:29:59.159Z,5.13
2023-03-25T17:32:26.295Z,10.63
2023-03-25T17:35:06.892Z,6.33
2023-03-25T17:37:34.295Z,7.50
2023-03-25T17:40:11.922Z,4.10
2023-03-25T17:42:40.583Z,4.43
2023-03-25T17:45:14.180Z,3.47
2023-03-25T17:47:40.930Z,3.77
2023-03-25T17:50:14.884Z,5.07
2023-03-25T17:52:41.919Z,5.37
2023-03-25T17:55:09.424Z,5.70
2023-03-25T17:57:37.678Z,5.00
2023-03-25T18:00:14.509Z,5.30
2023-03-25T18:02:41.937Z,7.33
2023-03-25T18:05:10.980Z,5.27
2023-03-25T18:07:38.004Z,4.07
2023-03-25T18:10:16.338Z,4.83
2023-03-25T18:12:43.544Z,5.53
2023-03-25T18:15:10.806Z,4.47
2023-03-25T18:17:38.129Z,4.60
2023-03-25T18:20:17.967Z,3.40
2023-03-25T18:22:45.087Z,5.13
2023-03-25T18:25:14.116Z,3.07
2023-03-25T18:27:44.178Z,4.53
2023-03-25T18:30:21.695Z,3.03
2023-03-25T18:32:48.742Z,3.77
2023-03-25T18:35:15.651Z,4.57
2023-03-25T18:37:43.381Z,3.63
2023-03-25T18:40:23.561Z,4.20
2023-03-25T18:42:51.674Z,6.40
2023-03-25T18:45:20.542Z,7.00
2023-03-25T18:47:47.974Z,7.03
2023-03-25T18:50:27.414Z,8.43
2023-03-25T18:52:55.158Z,8.13
2023-03-25T18:55:22.648Z,9.90
2023-03-25T18:57:49.700Z,10.63
2023-03-25T19:00:21.733Z,10.93
2023-03-25T19:02:49.552Z,16.37
2023-03-25T19:05:17.770Z,10.90
2023-03-25T19:07:45.268Z,12.63
2023-03-25T19:10:24.135Z,13.63
2023-03-25T19:12:51.816Z,13.57
2023-03-25T19:15:21.265Z,16.27
2023-03-25T19:17:49.362Z,11.57
2023-03-25T19:20:19.001Z,14.07
2023-03-25T19:22:46.278Z,13.30
2023-03-25T19:25:14.257Z,11.87
2023-03-25T19:27:42.938Z,17.57
2023-03-25T19:30:12.930Z,16.97
2023-03-25T19:32:42.956Z,21.30
2023-03-25T19:35:11.777Z,21.30
2023-03-25T19:37:39.953Z,21.37
2023-03-25T19:40:09.540Z,16.40
2023-03-25T19:42:37.392Z,17.00
2023-03-25T19:45:06.202Z,14.63
2023-03-25T19:47:33.215Z,21.20
2023-03-25T19:50:00.278Z,19.73
2023-03-25T19:52:29.747Z,15.40
2023-03-25T19:54:56.668Z,14.10
2023-03-25T19:57:23.650Z,20.63
2023-03-25T19:59:51.268Z,20.40
2023-03-25T20:02:18.766Z,20.77
2023-03-25T20:04:45.983Z,19.93
2023-03-25T20:07:12.925Z,17.03
2023-03-25T20:09:41.784Z,19.03
2023-03-25T20:12:09.056Z,13.27
2023-03-25T20:14:36.241Z,14.13
2023-03-25T20:17:03.367Z,15.53
2023-03-25T20:19:30.486Z,14.90
2023-03-25T20:21:57.496Z,10.57
2023-03-25T20:24:24.859Z,14.87
2023-03-25T20:26:52.326Z,12.07
2023-03-25T20:29:20.162Z,14.50
2023-03-25T20:31:47.463Z,13.03
2023-03-25T20:34:14.640Z,20.27
2023-03-25T20:36:41.843Z,13.80
2023-03-25T20:39:08.844Z,16.83
2023-03-25T20:41:36.113Z,17.83
2023-03-25T20:44:03.189Z,15.27
2023-03-25T20:46:31.652Z,14.00
2023-03-25T20:48:58.975Z,11.07
2023-03-25T20:51:26.106Z,12.23
2023-03-25T20:53:53.556Z,16.43
2023-03-25T20:56:20.818Z,15.90
2023-03-25T20:58:47.773Z,16.80
2023-03-25T21:01:15.691Z,15.97
2023-03-25T21:03:43.146Z,18.80
2023-03-25T21:06:22.898Z,16.07
2023-03-25T21:08:51.532Z,18.67
2023-03-25T21:11:18.694Z,14.10
2023-03-25T21:13:45.802Z,16.40
2023-03-25T21:16:12.848Z,15.90
2023-03-25T21:18:39.954Z,17.43
2023-03-25T21:21:07.171Z,22.00
2023-03-25T21:23:34.068Z,12.87
2023-03-25T21:26:03.646Z,16.57
2023-03-25T21:28:32.392Z,25.87
2023-03-25T21:31:04.531Z,20.20
2023-03-25T21:33:37.382Z,25.67
2023-03-25T21:36:06.605Z,15.57
2023-03-25T21:38:34.655Z,16.90
2023-03-25T21:41:04.716Z,17.73
2023-03-25T21:43:32.820Z,21.33
2023-03-25T21:46:05.408Z,19.27
2023-03-25T21:48:34.156Z,19.37
2023-03-25T21:51:04.048Z,14.97
2023-03-25T21:53:32.140Z,16.47
2023-03-25T21:56:03.884Z,16.53
2023-03-25T21:58:37.645Z,18.50
2023-03-25T22:01:07.442Z,19.67
2023-03-25T22:03:37.575Z,26.53
2023-03-25T22:06:05.971Z,16.20
2023-03-25T22:08:33.371Z,27.00
2023-03-25T22:11:18.595Z,21.33
2023-03-25T22:13:46.820Z,18.97
2023-03-25T22:16:15.897Z,17.20
2023-03-25T22:18:43.248Z,24.20
2023-03-25T22:21:16.432Z,16.17
2023-03-25T22:23:46.066Z,18.17
2023-03-25T22:26:14.716Z,18.80
2023-03-25T22:28:42.788Z,12.40
2023-03-25T22:31:10.810Z,16.50
2023-03-25T22:33:38.708Z,17.53
2023-03-25T22:36:11.975Z,16.60
2023-03-25T22:38:40.927Z,15.53
2023-03-25T22:41:09.092Z,16.90
2023-03-25T22:43:36.984Z,13.60
2023-03-25T22:46:05.835Z,16.93
2023-03-25T22:48:34.153Z,17.30
2023-03-25T22:51:01.296Z,15.23
2023-03-25T22:53:28.881Z,14.87
2023-03-25T22:55:57.099Z,14.97
2023-03-25T22:58:27.467Z,15.10
2023-03-25T23:00:55.701Z,19.77
2023-03-25T23:03:24.030Z,22.57
2023-03-25T23:06:06.406Z,23.07
2023-03-25T23:08:35.956Z,23.33
2023-03-25T23:11:10.007Z,22.33
2023-03-25T23:13:37.260Z,19.83
2023-03-25T23:16:07.457Z,13.90
2023-03-25T23:18:36.767Z,14.43
2023-03-25T23:21:04.151Z,18.57
2023-03-25T23:23:31.143Z,17.70
2023-03-25T23:26:16.712Z,21.33
2023-03-25T23:28:45.661Z,16.00
2023-03-25T23:31:28.638Z,16.40
2023-03-25T23:34:00.647Z,18.17
2023-03-25T23:36:30.467Z,19.00
2023-03-25T23:38:59.331Z,14.53
2023-03-25T23:41:26.640Z,19.63
2023-03-25T23:43:56.165Z,18.97
2023-03-25T23:46:24.747Z,19.47
2023-03-25T23:48:55.030Z,18.50
2023-03-25T23:51:24.537Z,19.13
2023-03-25T23:53:52.560Z,20.33
2023-03-25T23:56:22.297Z,19.77
2023-03-25T23:58:49.376Z,16.53
